createdAt,value
2022-08-12T00:01:11.997Z,55.68
2022-08-12T00:03:32.474Z,55.61
2022-08-12T00:06:01.670Z,55.95
2022-08-12T00:08:30.907Z,56.91
2022-08-12T00:10:58.440Z,55.92
2022-08-12T00:13:31.046Z,55.98
2022-08-12T00:15:52.440Z,56.15
2022-08-12T00:18:13.286Z,55.46
2022-08-12T00:20:33.515Z,56.49
2022-08-12T00:22:59.405Z,55.80
2022-08-12T00:25:21.271Z,55.79
2022-08-12T00:28:02.716Z,55.91
2022-08-12T00:30:26.002Z,55.87
2022-08-12T00:32:54.272Z,56.61
2022-08-12T00:35:17.852Z,55.48
2022-08-12T00:37:40.035Z,56.05
2022-08-12T00:40:00.908Z,55.75
2022-08-12T00:42:12.750Z,57.44
2022-08-12T00:44:16.975Z,55.99
2022-08-12T00:46:32.799Z,57.55
2022-08-12T00:48:36.106Z,56.35
2022-08-12T00:50:39.898Z,57.29
2022-08-12T00:52:45.284Z,58.02
2022-08-12T00:54:51.588Z,56.68
2022-08-12T00:56:55.414Z,57.18
2022-08-12T00:58:59.497Z,58.50
2022-08-12T01:01:04.840Z,57.63
2022-08-12T01:03:12.406Z,59.13
2022-08-12T01:05:34.547Z,57.54
2022-08-12T01:07:56.249Z,58.38
2022-08-12T01:10:17.180Z,57.63
2022-08-12T01:12:20.657Z,59.40
2022-08-12T01:14:25.257Z,59.27
2022-08-12T01:16:29.280Z,58.12
2022-08-12T01:18:36.836Z,59.23
2022-08-12T01:20:48.293Z,59.14
2022-08-12T01:23:05.428Z,59.07
2022-08-12T01:25:12.504Z,59.54
2022-08-12T01:27:16.907Z,60.11
2022-08-12T01:29:23.761Z,59.30
2022-08-12T01:31:29.155Z,59.28
2022-08-12T01:33:37.105Z,58.12
2022-08-12T01:35:42.223Z,58.50
2022-08-12T01:37:49.091Z,59.28
2022-08-12T01:40:34.490Z,57.98
2022-08-12T01:42:21.192Z,58.63
2022-08-12T01:44:24.600Z,58.28
2022-08-12T01:46:37.360Z,59.06
2022-08-12T01:49:02.358Z,58.09
2022-08-12T01:52:16.005Z,57.76
2022-08-12T01:53:51.705Z,57.86
2022-08-12T01:55:55.396Z,59.06
2022-08-12T01:58:08.453Z,58.92
2022-08-12T02:00:13.520Z,58.67
2022-08-12T02:02:19.057Z,59.35
2022-08-12T02:04:47.235Z,58.00
2022-08-12T02:07:15.625Z,59.87
2022-08-12T02:09:48.022Z,59.52
2022-08-12T02:11:58.826Z,60.91
2022-08-12T02:14:28.490Z,60.30
2022-08-12T02:16:47.945Z,60.09
2022-08-12T02:19:00.353Z,60.50
2022-08-12T02:21:06.817Z,60.44
2022-08-12T02:23:11.588Z,59.63
2022-08-12T02:25:16.399Z,59.08
2022-08-12T02:27:21.051Z,59.33
2022-08-12T02:29:25.618Z,60.61
2022-08-12T02:31:29.952Z,59.61
2022-08-12T02:33:33.817Z,59.63
2022-08-12T02:35:39.553Z,60.18
2022-08-12T02:37:43.922Z,59.89
2022-08-12T02:39:50.743Z,61.04
2022-08-12T02:41:55.452Z,59.45
2022-08-12T02:44:01.221Z,59.32
2022-08-12T02:46:13.439Z,60.53
2022-08-12T02:48:23.088Z,60.63
2022-08-12T02:50:30.909Z,59.48
2022-08-12T02:52:35.534Z,60.62
2022-08-12T02:54:39.696Z,60.04
2022-08-12T02:56:50.607Z,60.21
2022-08-12T02:58:54.356Z,60.70
2022-08-12T03:00:57.624Z,60.20
2022-08-12T03:03:07.107Z,60.21
2022-08-12T03:05:12.547Z,60.49
2022-08-12T03:07:19.214Z,60.51
2022-08-12T03:09:23.470Z,60.68
2022-08-12T03:11:40.209Z,61.25
2022-08-12T03:13:48.066Z,61.49
2022-08-12T03:15:51.348Z,61.55
2022-08-12T03:18:24.860Z,61.41
2022-08-12T03:20:28.430Z,61.46
2022-08-12T03:22:32.216Z,61.33
2022-08-12T03:24:36.304Z,62.56
2022-08-12T03:26:43.043Z,63.57
2022-08-12T03:28:54.026Z,62.90
2022-08-12T03:31:02.143Z,62.06
2022-08-12T03:33:07.084Z,62.37
2022-08-12T03:35:37.007Z,62.84
2022-08-12T03:37:38.564Z,61.85
2022-08-12T03:39:45.463Z,63.45
2022-08-12T03:41:51.553Z,63.10
2022-08-12T03:44:17.371Z,63.77
2022-08-12T03:46:43.580Z,63.68
2022-08-12T03:49:04.260Z,64.50
2022-08-12T03:51:25.078Z,64.12
2022-08-12T03:53:48.305Z,64.42
2022-08-12T03:56:08.773Z,64.43
2022-08-12T03:58:29.152Z,64.82
2022-08-12T04:00:32.109Z,65.02
2022-08-12T04:02:35.790Z,65.22
2022-08-12T04:04:45.053Z,65.08
2022-08-12T04:06:48.191Z,66.44
2022-08-12T04:08:57.543Z,65.67
2022-08-12T04:11:18.102Z,66.11
2022-08-12T04:13:25.527Z,66.42
2022-08-12T04:15:29.967Z,65.94
2022-08-12T04:17:33.250Z,66.03
2022-08-12T04:19:36.254Z,66.22
2022-08-12T04:21:42.195Z,67.04
2022-08-12T04:24:05.918Z,66.96
2022-08-12T04:26:09.018Z,66.43
2022-08-12T04:28:14.101Z,67.01
2022-08-12T04:30:32.415Z,66.99
2022-08-12T04:32:40.962Z,67.08
2022-08-12T04:34:47.336Z,68.46
2022-08-12T04:36:50.545Z,68.00
2022-08-12T04:38:59.090Z,66.59
2022-08-12T04:41:05.743Z,67.23
2022-08-12T04:44:00.463Z,67.38
2022-08-12T04:45:34.719Z,66.79
2022-08-12T04:47:37.892Z,67.86
2022-08-12T04:49:41.760Z,67.28
2022-08-12T04:51:56.785Z,67.88
2022-08-12T04:54:03.400Z,67.03
2022-08-12T04:56:08.655Z,66.95
2022-08-12T04:58:12.172Z,66.97
2022-08-12T05:00:18.191Z,67.28
2022-08-12T05:02:22.776Z,66.84
2022-08-12T05:04:26.701Z,67.59
2022-08-12T05:06:29.871Z,67.98
2022-08-12T05:08:32.949Z,67.79
2022-08-12T05:10:36.257Z,67.10
2022-08-12T05:12:44.459Z,67.33
2022-08-12T05:14:47.491Z,66.86
2022-08-12T05:16:50.505Z,67.29
2022-08-12T05:18:54.610Z,67.70
2022-08-12T05:21:00.630Z,66.45
2022-08-12T05:23:12.635Z,66.19
2022-08-12T05:25:18.405Z,66.18
2022-08-12T05:27:22.670Z,64.59
2022-08-12T05:30:06.162Z,65.46
2022-08-12T05:31:56.831Z,64.43
2022-08-12T05:33:59.991Z,64.02
2022-08-12T05:36:03.178Z,61.92
2022-08-12T05:38:23.991Z,62.06
2022-08-12T05:40:27.001Z,60.88
2022-08-12T05:42:32.525Z,61.09
2022-08-12T05:44:39.165Z,59.98
2022-08-12T05:46:42.293Z,59.52
2022-08-12T05:48:45.317Z,59.05
2022-08-12T05:50:49.225Z,59.23
2022-08-12T05:52:53.873Z,57.27
2022-08-12T05:54:58.061Z,57.29
2022-08-12T05:57:01.279Z,57.38
2022-08-12T05:59:07.370Z,57.05
2022-08-12T06:02:11.927Z,57.02
2022-08-12T06:03:35.002Z,56.74
2022-08-12T06:05:43.210Z,56.57
2022-08-12T06:08:01.438Z,55.26
2022-08-12T06:10:06.530Z,54.84
2022-08-12T06:12:09.987Z,54.98
2022-08-12T06:14:13.065Z,55.55
2022-08-12T06:16:22.117Z,55.52
2022-08-12T06:18:29.325Z,54.63
2022-08-12T06:20:33.641Z,55.13
2022-08-12T06:22:37.561Z,52.92
2022-08-12T06:24:40.642Z,53.55
2022-08-12T06:26:44.456Z,53.21
2022-08-12T06:28:51.000Z,51.68
2022-08-12T06:33:22.162Z,50.60
2022-08-12T06:35:47.674Z,51.52
2022-08-12T06:37:56.684Z,51.47
2022-08-12T06:40:03.102Z,50.71
2022-08-12T06:42:32.997Z,50.76
2022-08-12T06:44:36.556Z,49.76
2022-08-12T06:46:39.546Z,50.06
2022-08-12T06:48:44.231Z,49.10
2022-08-12T06:50:49.199Z,49.32
2022-08-12T06:52:52.971Z,49.62
2022-08-12T06:54:57.087Z,48.72
2022-08-12T06:57:04.217Z,48.52
2022-08-12T06:59:09.281Z,48.55
2022-08-12T07:01:12.578Z,48.96
2022-08-12T07:03:25.601Z,48.03
2022-08-12T07:05:30.593Z,48.67
2022-08-12T07:07:33.706Z,48.70
2022-08-12T07:10:04.048Z,48.28
2022-08-12T07:12:00.203Z,47.00
2022-08-12T07:14:13.146Z,47.81
2022-08-12T07:16:18.196Z,47.73
2022-08-12T07:18:21.323Z,47.64
2022-08-12T07:20:50.318Z,48.88
2022-08-12T07:22:49.780Z,47.00
2022-08-12T07:25:13.433Z,46.76
2022-08-12T07:27:17.409Z,47.26
2022-08-12T07:29:20.600Z,47.10
2022-08-12T07:31:23.883Z,47.21
2022-08-12T07:33:29.085Z,47.46
2022-08-12T07:35:33.618Z,46.66
2022-08-12T07:37:41.503Z,47.22
2022-08-12T07:39:50.783Z,46.64
2022-08-12T07:41:57.152Z,45.93
2022-08-12T07:44:04.711Z,46.07
2022-08-12T07:46:10.172Z,45.65
2022-08-12T07:48:13.292Z,46.60
2022-08-12T07:50:23.453Z,45.97
2022-08-12T07:52:27.095Z,45.57
2022-08-12T07:54:30.231Z,45.67
2022-08-12T07:56:34.893Z,45.21
2022-08-12T07:58:41.960Z,45.52
2022-08-12T08:00:49.761Z,45.39
2022-08-12T08:02:54.527Z,44.93
2022-08-12T08:04:56.578Z,44.94
2022-08-12T08:07:00.462Z,44.75
2022-08-12T08:09:05.536Z,44.96
2022-08-12T08:11:25.936Z,44.83
2022-08-12T08:13:30.417Z,44.23
2022-08-12T08:18:02.730Z,44.58
2022-08-12T08:20:07.886Z,44.25
2022-08-12T08:22:11.318Z,44.75
2022-08-12T08:24:17.283Z,44.38
2022-08-12T08:26:20.697Z,43.61
2022-08-12T08:28:23.907Z,43.81
2022-08-12T08:30:29.845Z,43.95
2022-08-12T08:32:33.042Z,43.54
2022-08-12T08:34:53.741Z,43.49
2022-08-12T08:36:57.785Z,43.25
2022-08-12T08:39:01.003Z,43.43
2022-08-12T08:42:15.824Z,43.02
2022-08-12T08:43:46.022Z,43.25
2022-08-12T08:45:51.200Z,43.29
2022-08-12T08:47:58.316Z,43.76
2022-08-12T08:50:04.148Z,43.76
2022-08-12T08:52:08.618Z,43.60
2022-08-12T08:54:12.540Z,42.26
2022-08-12T08:56:15.546Z,43.16
2022-08-12T08:58:21.195Z,43.87
2022-08-12T09:00:24.494Z,43.74
2022-08-12T09:02:29.390Z,43.60
2022-08-12T09:05:11.000Z,43.43
2022-08-12T09:06:56.740Z,43.33
2022-08-12T09:09:00.022Z,43.56
2022-08-12T09:12:06.733Z,43.31
2022-08-12T09:14:11.502Z,43.10
2022-08-12T09:16:09.501Z,42.93
2022-08-12T09:18:18.722Z,43.10
2022-08-12T09:20:35.975Z,42.98
2022-08-12T09:22:40.040Z,43.16
2022-08-12T09:24:43.090Z,43.54
2022-08-12T09:26:47.549Z,43.77
2022-08-12T09:28:53.040Z,43.61
2022-08-12T09:30:58.996Z,44.15
2022-08-12T09:33:05.739Z,42.75
2022-08-12T09:35:22.373Z,43.12
2022-08-12T09:37:52.920Z,43.56
2022-08-12T09:40:00.651Z,43.15
2022-08-12T09:42:41.115Z,43.56
2022-08-12T09:45:18.950Z,43.42
2022-08-12T09:47:29.335Z,43.14
2022-08-12T09:49:37.208Z,43.18
2022-08-12T09:51:46.736Z,43.05
2022-08-12T09:54:09.167Z,43.50
2022-08-12T09:56:59.308Z,42.96
2022-08-12T09:58:58.113Z,43.33
2022-08-12T10:01:15.201Z,41.79
2022-08-12T10:03:31.967Z,41.88
2022-08-12T10:06:19.582Z,41.77
2022-08-12T10:08:10.572Z,42.52
2022-08-12T10:10:22.825Z,42.00
2022-08-12T10:13:07.945Z,42.54
2022-08-12T10:15:15.410Z,42.15
2022-08-12T10:17:33.110Z,42.03
2022-08-12T10:19:37.782Z,42.79
2022-08-12T10:21:42.172Z,42.48
2022-08-12T10:23:51.479Z,42.61
2022-08-12T10:26:36.939Z,42.49
2022-08-12T10:29:02.927Z,42.27
2022-08-12T10:31:16.402Z,42.00
2022-08-12T10:33:30.693Z,41.50
2022-08-12T10:35:38.297Z,41.32
2022-08-12T10:38:33.382Z,41.57
2022-08-12T10:40:10.040Z,40.84
2022-08-12T10:42:34.879Z,40.85
2022-08-12T10:44:38.053Z,41.89
2022-08-12T10:46:42.261Z,42.06
2022-08-12T10:48:58.097Z,42.06
2022-08-12T10:52:03.116Z,42.19
2022-08-12T10:53:45.068Z,41.95
2022-08-12T10:55:56.197Z,41.59
2022-08-12T10:58:27.380Z,41.84
2022-08-12T11:00:34.206Z,41.67
2022-08-12T11:04:31.874Z,40.95
2022-08-12T11:07:09.011Z,40.82
2022-08-12T11:08:38.875Z,40.93
2022-08-12T11:10:02.876Z,40.64
2022-08-12T11:12:55.110Z,40.96
2022-08-12T11:14:49.438Z,40.69
2022-08-12T11:17:06.457Z,41.34
2022-08-12T11:19:22.349Z,41.01
2022-08-12T11:21:51.390Z,40.67
2022-08-12T11:23:53.703Z,41.50
2022-08-12T11:26:00.486Z,41.15
2022-08-12T11:28:10.213Z,41.41
2022-08-12T11:30:30.933Z,41.42
2022-08-12T11:32:39.161Z,41.18
2022-08-12T11:34:51.298Z,41.68
2022-08-12T11:37:00.920Z,41.44
2022-08-12T11:39:07.867Z,41.28
2022-08-12T11:41:15.537Z,41.91
2022-08-12T11:43:20.536Z,42.19
2022-08-12T11:45:23.876Z,42.54
2022-08-12T11:47:26.876Z,42.31
2022-08-12T11:49:32.228Z,42.53
2022-08-12T11:51:39.766Z,42.63
2022-08-12T11:53:57.152Z,41.39
2022-08-12T11:56:02.846Z,42.15
2022-08-12T11:58:48.947Z,42.18
2022-08-12T12:02:53.933Z,42.01
2022-08-12T12:04:57.031Z,41.28
2022-08-12T12:07:07.290Z,41.27
2022-08-12T12:09:14.291Z,41.52
2022-08-12T12:11:19.859Z,41.58
2022-08-12T12:14:06.358Z,41.49
2022-08-12T12:15:47.472Z,40.77
2022-08-12T12:17:55.770Z,41.00
2022-08-12T12:19:59.232Z,40.74
2022-08-12T12:22:02.367Z,40.29
2022-08-12T12:24:05.967Z,40.84
2022-08-12T12:26:34.853Z,40.85
2022-08-12T12:28:37.768Z,41.05
2022-08-12T12:30:54.554Z,41.70
2022-08-12T12:32:59.602Z,41.02
2022-08-12T12:36:05.552Z,41.45
2022-08-12T12:37:58.942Z,41.34
2022-08-12T12:39:54.888Z,41.57
2022-08-12T12:42:43.792Z,41.12
2022-08-12T12:44:25.514Z,40.92
2022-08-12T12:46:33.682Z,41.73
2022-08-12T12:48:41.387Z,41.65
2022-08-12T12:51:09.399Z,41.43
2022-08-12T12:54:06.067Z,41.58
2022-08-12T12:55:38.702Z,41.51
2022-08-12T12:58:00.503Z,41.25
2022-08-12T13:00:17.819Z,40.99
2022-08-12T13:02:31.774Z,40.99
2022-08-12T13:04:37.326Z,41.59
2022-08-12T13:06:41.879Z,40.95
2022-08-12T13:08:46.927Z,40.87
2022-08-12T13:10:51.114Z,40.51
2022-08-12T13:12:55.289Z,40.95
2022-08-12T13:14:58.348Z,40.88
2022-08-12T13:17:02.573Z,40.94
2022-08-12T13:19:07.787Z,41.48
2022-08-12T13:21:33.429Z,40.68
2022-08-12T13:23:39.810Z,40.99
2022-08-12T13:25:48.087Z,40.96
2022-08-12T13:27:52.668Z,41.56
2022-08-12T13:29:59.873Z,41.01
2022-08-12T13:32:19.365Z,41.62
2022-08-12T13:34:34.691Z,41.39
2022-08-12T13:36:40.957Z,41.54
2022-08-12T13:38:52.099Z,41.77
2022-08-12T13:40:58.478Z,42.47
2022-08-12T13:43:05.583Z,41.83
2022-08-12T13:45:09.700Z,41.65
2022-08-12T13:47:20.087Z,42.19
2022-08-12T13:49:53.753Z,42.15
2022-08-12T13:51:53.737Z,41.97
2022-08-12T13:54:00.149Z,41.08
2022-08-12T13:56:11.866Z,41.30
2022-08-12T13:58:17.591Z,41.20
2022-08-12T14:00:22.118Z,41.30
2022-08-12T14:02:38.480Z,41.58
2022-08-12T14:04:42.654Z,41.38
2022-08-12T14:06:46.385Z,41.20
2022-08-12T14:08:54.792Z,41.47
2022-08-12T14:10:59.785Z,42.03
2022-08-12T14:13:05.458Z,41.35
2022-08-12T14:15:14.402Z,41.72
2022-08-12T14:17:38.106Z,41.70
2022-08-12T14:20:01.776Z,41.79
2022-08-12T14:22:05.716Z,41.47
2022-08-12T14:24:10.764Z,41.69
2022-08-12T14:26:19.968Z,41.25
2022-08-12T14:28:25.222Z,41.27
2022-08-12T14:30:31.123Z,41.13
2022-08-12T14:32:36.266Z,41.38
2022-08-12T14:34:39.443Z,41.57
2022-08-12T14:36:48.151Z,41.81
2022-08-12T14:38:54.055Z,41.57
2022-08-12T14:41:01.295Z,41.41
2022-08-12T14:43:15.166Z,42.04
2022-08-12T14:45:49.036Z,41.12
2022-08-12T14:47:58.770Z,41.28
2022-08-12T14:50:40.906Z,41.37
2022-08-12T14:53:09.575Z,42.47
2022-08-12T14:57:24.587Z,42.12
2022-08-12T14:59:58.040Z,42.13
2022-08-12T15:02:01.867Z,42.29
2022-08-12T15:04:05.261Z,41.80
2022-08-12T15:06:43.509Z,42.15
2022-08-12T15:08:34.452Z,41.06
2022-08-12T15:10:37.860Z,41.77
2022-08-12T15:12:42.918Z,42.02
2022-08-12T15:14:45.956Z,41.47
2022-08-12T15:16:49.972Z,41.90
2022-08-12T15:18:56.141Z,41.26
2022-08-12T15:21:11.106Z,41.76
2022-08-12T15:23:18.074Z,40.99
2022-08-12T15:25:24.607Z,41.93
2022-08-12T15:27:31.575Z,41.98
2022-08-12T15:29:52.876Z,42.49
2022-08-12T15:32:00.530Z,42.70
2022-08-12T15:34:06.733Z,41.55
2022-08-12T15:36:09.951Z,42.25
2022-08-12T15:38:18.678Z,41.79
2022-08-12T15:40:30.296Z,42.30
2022-08-12T15:42:34.193Z,42.14
2022-08-12T15:44:42.604Z,42.22
2022-08-12T15:46:47.619Z,41.27
2022-08-12T15:48:51.543Z,42.21
2022-08-12T15:50:55.430Z,41.70
2022-08-12T15:52:59.431Z,41.93
2022-08-12T15:55:21.507Z,42.46
2022-08-12T15:57:24.696Z,42.17
2022-08-12T16:00:03.842Z,42.65
2022-08-12T16:01:55.156Z,42.29
2022-08-12T16:04:00.261Z,42.46
2022-08-12T16:06:12.195Z,42.83
2022-08-12T16:08:26.987Z,42.56
2022-08-12T16:10:31.644Z,42.62
2022-08-12T16:12:39.484Z,42.60
2022-08-12T16:14:43.183Z,42.72
2022-08-12T16:16:48.649Z,42.85
2022-08-12T16:18:57.374Z,42.20
2022-08-12T16:21:03.176Z,42.08
2022-08-12T16:23:35.928Z,41.90
2022-08-12T16:26:02.606Z,42.25
2022-08-12T16:27:56.187Z,41.27
2022-08-12T16:29:59.917Z,42.18
2022-08-12T16:32:05.161Z,42.38
2022-08-12T16:34:26.143Z,41.25
2022-08-12T16:36:34.783Z,41.89
2022-08-12T16:38:39.060Z,42.06
2022-08-12T16:40:46.335Z,42.22
2022-08-12T16:42:53.967Z,41.71
2022-08-12T16:45:05.710Z,41.99
2022-08-12T16:47:13.366Z,41.47
2022-08-12T16:49:19.318Z,41.63
2022-08-12T16:51:25.427Z,41.79
2022-08-12T16:53:43.233Z,42.12
2022-08-12T16:55:50.662Z,41.85
2022-08-12T16:57:58.147Z,41.35
2022-08-12T17:00:06.368Z,41.61
2022-08-12T17:02:10.496Z,41.76
2022-08-12T17:04:14.291Z,41.24
2022-08-12T17:06:19.557Z,41.07
2022-08-12T17:08:29.133Z,42.04
2022-08-12T17:10:36.404Z,41.24
2022-08-12T17:12:40.408Z,41.18
2022-08-12T17:14:52.887Z,41.18
2022-08-12T17:16:57.018Z,41.38
2022-08-12T17:19:03.319Z,42.16
2022-08-12T17:21:17.507Z,41.71
2022-08-12T17:23:27.517Z,42.33
2022-08-12T17:25:53.656Z,41.43
2022-08-12T17:27:57.764Z,41.83
2022-08-12T17:30:05.450Z,41.47
2022-08-12T17:32:10.264Z,42.42
2022-08-12T17:34:33.646Z,42.28
2022-08-12T17:36:35.795Z,41.48
2022-08-12T17:38:40.595Z,41.64
2022-08-12T17:40:46.483Z,41.48
2022-08-12T17:42:49.953Z,41.97
2022-08-12T17:44:53.508Z,42.16
2022-08-12T17:46:57.273Z,43.08
2022-08-12T17:49:00.718Z,42.43
2022-08-12T17:51:15.589Z,42.28
2022-08-12T17:53:20.804Z,42.20
2022-08-12T17:55:40.502Z,43.10
2022-08-12T17:57:49.243Z,42.60
2022-08-12T17:59:58.034Z,42.47
2022-08-12T18:02:02.619Z,42.74
2022-08-12T18:04:20.936Z,43.17
2022-08-12T18:06:27.906Z,42.38
2022-08-12T18:08:33.259Z,42.32
2022-08-12T18:10:55.908Z,42.54
2022-08-12T18:13:02.163Z,43.14
2022-08-12T18:15:09.387Z,42.99
2022-08-12T18:17:12.773Z,43.22
2022-08-12T18:19:17.418Z,43.52
2022-08-12T18:21:20.550Z,43.10
2022-08-12T18:23:26.215Z,43.63
2022-08-12T18:26:15.906Z,43.28
2022-08-12T18:28:16.916Z,43.58
2022-08-12T18:30:31.168Z,43.52
2022-08-12T18:32:58.360Z,43.53
2022-08-12T18:35:10.261Z,43.99
2022-08-12T18:37:29.481Z,44.30
2022-08-12T18:39:52.489Z,44.45
2022-08-12T18:41:58.098Z,45.20
2022-08-12T18:44:09.301Z,45.58
2022-08-12T18:46:14.500Z,45.24
2022-08-12T18:48:18.236Z,44.96
2022-08-12T18:50:24.613Z,45.24
2022-08-12T18:52:30.918Z,45.56
2022-08-12T18:54:38.501Z,45.22
2022-08-12T18:56:45.442Z,45.66
2022-08-12T18:58:59.251Z,45.45
2022-08-12T19:01:05.880Z,45.57
2022-08-12T19:03:23.343Z,45.96
2022-08-12T19:05:52.870Z,45.82
2022-08-12T19:08:01.757Z,46.45
2022-08-12T19:10:06.501Z,46.14
2022-08-12T19:12:40.691Z,45.87
2022-08-12T19:14:45.276Z,46.17
2022-08-12T19:16:52.418Z,46.55
2022-08-12T19:18:56.425Z,46.92
2022-08-12T19:21:06.517Z,47.66
2022-08-12T19:23:16.272Z,46.94
2022-08-12T19:25:23.652Z,47.82
2022-08-12T19:27:50.788Z,48.04
2022-08-12T19:30:07.051Z,48.34
2022-08-12T19:32:23.232Z,47.73
2022-08-12T19:36:53.460Z,48.74
2022-08-12T19:38:57.103Z,48.16
2022-08-12T19:41:02.188Z,48.55
2022-08-12T19:43:19.150Z,48.56
2022-08-12T19:45:23.992Z,48.17
2022-08-12T19:47:47.256Z,49.15
2022-08-12T19:49:53.255Z,49.21
2022-08-12T19:51:59.163Z,49.64
2022-08-12T19:54:02.859Z,48.70
2022-08-12T19:56:06.414Z,49.33
2022-08-12T19:58:18.198Z,48.61
2022-08-12T20:00:22.337Z,49.71
2022-08-12T20:02:32.865Z,49.32
2022-08-12T20:04:39.687Z,49.33
2022-08-12T20:06:44.864Z,49.22
2022-08-12T20:08:56.735Z,49.83
2022-08-12T20:12:12.013Z,50.00
2022-08-12T20:13:34.090Z,50.07
2022-08-12T20:15:44.268Z,50.21
2022-08-12T20:17:51.085Z,50.13
2022-08-12T20:20:16.809Z,50.25
2022-08-12T20:22:24.062Z,50.13
2022-08-12T20:24:37.600Z,50.93
2022-08-12T20:26:42.227Z,51.37
2022-08-12T20:28:47.910Z,51.04
2022-08-12T20:30:59.309Z,50.72
2022-08-12T20:33:03.388Z,51.03
2022-08-12T20:35:10.598Z,51.30
2022-08-12T20:37:22.369Z,50.54
2022-08-12T20:39:52.837Z,50.64
2022-08-12T20:42:07.011Z,51.14
2022-08-12T20:44:16.853Z,50.99
2022-08-12T20:46:21.119Z,50.93
2022-08-12T20:48:25.521Z,51.05
2022-08-12T20:50:35.460Z,52.01
2022-08-12T20:52:41.161Z,51.92
2022-08-12T20:54:50.040Z,51.07
2022-08-12T20:56:53.123Z,51.54
2022-08-12T20:58:57.838Z,52.19
2022-08-12T21:01:00.929Z,51.50
2022-08-12T21:03:18.284Z,52.16
2022-08-12T21:06:09.369Z,51.67
2022-08-12T21:08:06.812Z,51.84
2022-08-12T21:10:15.224Z,52.02
2022-08-12T21:12:28.695Z,51.92
2022-08-12T21:14:39.334Z,52.46
2022-08-12T21:16:57.275Z,52.15
2022-08-12T21:19:01.625Z,52.05
2022-08-12T21:21:23.184Z,51.78
2022-08-12T21:23:30.970Z,52.88
2022-08-12T21:25:45.316Z,52.33
2022-08-12T21:27:59.476Z,52.67
2022-08-12T21:30:06.084Z,52.86
2022-08-12T21:32:46.871Z,52.87
2022-08-12T21:34:34.052Z,52.60
2022-08-12T21:36:48.596Z,52.67
2022-08-12T21:38:58.247Z,52.69
2022-08-12T21:41:01.326Z,53.46
2022-08-12T21:43:09.982Z,53.29
2022-08-12T21:45:45.734Z,53.59
2022-08-12T21:47:37.191Z,53.33
2022-08-12T21:49:54.692Z,53.63
2022-08-12T21:52:00.059Z,53.60
2022-08-12T21:54:09.852Z,54.24
2022-08-12T21:56:33.999Z,54.54
2022-08-12T21:58:38.934Z,54.13
2022-08-12T22:00:42.359Z,54.20
2022-08-12T22:03:05.723Z,54.29
2022-08-12T22:05:28.987Z,54.49
2022-08-12T22:07:46.102Z,55.30
2022-08-12T22:09:57.249Z,54.73
2022-08-12T22:12:25.631Z,55.45
2022-08-12T22:14:29.247Z,55.46
2022-08-12T22:16:34.374Z,55.51
2022-08-12T22:18:40.180Z,55.55
2022-08-12T22:20:46.123Z,55.59
2022-08-12T22:22:56.138Z,55.82
2022-08-12T22:25:01.682Z,55.16
2022-08-12T22:27:14.427Z,56.64
2022-08-12T22:29:46.622Z,55.76
2022-08-12T22:31:53.736Z,55.71
2022-08-12T22:33:59.881Z,56.47
2022-08-12T22:36:03.791Z,56.70
2022-08-12T22:38:17.275Z,56.60
2022-08-12T22:40:24.104Z,56.62
2022-08-12T22:42:45.983Z,57.09
2022-08-12T22:45:15.996Z,56.84
2022-08-12T22:47:53.572Z,57.25
2022-08-12T22:50:00.730Z,56.97
2022-08-12T22:52:06.888Z,57.09
2022-08-12T22:54:35.617Z,57.54
2022-08-12T22:56:35.960Z,57.26
2022-08-12T22:58:40.682Z,57.02
2022-08-12T23:00:48.296Z,56.90
2022-08-12T23:03:00.875Z,57.18
2022-08-12T23:05:08.635Z,58.45
2022-08-12T23:07:13.645Z,58.33
2022-08-12T23:09:17.597Z,58.34
2022-08-12T23:11:36.340Z,58.05
2022-08-12T23:13:54.875Z,58.31
2022-08-12T23:15:59.291Z,58.12
2022-08-12T23:18:04.328Z,58.17
2022-08-12T23:20:10.743Z,58.55
2022-08-12T23:22:35.661Z,59.86
2022-08-12T23:24:41.232Z,60.22
2022-08-12T23:27:18.175Z,59.12
2022-08-12T23:29:29.910Z,59.30
2022-08-12T23:32:02.631Z,58.75
2022-08-12T23:34:07.387Z,60.35
2022-08-12T23:36:12.611Z,60.59
2022-08-12T23:38:30.170Z,60.88
2022-08-12T23:40:35.060Z,59.79
2022-08-12T23:42:44.211Z,60.33
2022-08-12T23:44:53.271Z,60.29
2022-08-12T23:46:59.757Z,61.32
2022-08-12T23:49:04.246Z,61.34
2022-08-12T23:51:32.312Z,62.10
2022-08-12T23:53:41.652Z,62.47
2022-08-12T23:55:45.622Z,62.65
2022-08-12T23:58:18.184Z,62.35
